VCP453 RPLL-RPMR
Flight info
| Callsign | VCP453 |
|---|---|
| Flight time | 1h 31m |
| Altitude | 37000 |
| Route | VERDE2R VERDE A461 SAJ/N0483F390 W3 IOO B472 COT W19 MELBY MELBY3P |
| Aircraft | B772/H-SDE2E3FGHIJ5LORVWXY/LB1D1 |
Departure
| Time | 2026-04-22 22:26 |
|---|---|
| Airport | Ninoy Aquino International Airport (RPLL) |
Arrival
| Time | 2026-04-22 23:57 |
|---|---|
| Airport | General Santos International Airport (RPMR) |
| Time | Latitude | Longitude | Altitude | Speed | Heading |
|---|---|---|---|---|---|
| 2026-04-22 21:27 | 14.50947 | 121.01463 | 89 ft | 0 kts | 317° |
| 2026-04-22 22:14 | 14.50939 | 121.01470 | 89 ft | 2 kts | 317° |
| 2026-04-22 22:14 | 14.50928 | 121.01481 | 89 ft | 2 kts | 317° |
| 2026-04-22 22:15 | 14.50917 | 121.01491 | 89 ft | 2 kts | 317° |
| 2026-04-22 22:15 | 14.50906 | 121.01502 | 89 ft | 2 kts | 317° |
| 2026-04-22 22:15 | 14.50901 | 121.01507 | 89 ft | 2 kts | 317° |
| 2026-04-22 22:15 | 14.50889 | 121.01516 | 89 ft | 2 kts | 341° |
| 2026-04-22 22:16 | 14.50874 | 121.01517 | 89 ft | 2 kts | 12° |
| 2026-04-22 22:16 | 14.50861 | 121.01512 | 89 ft | 2 kts | 41° |
| 2026-04-22 22:16 | 14.50852 | 121.01500 | 89 ft | 2 kts | 65° |
| 2026-04-22 22:16 | 14.50845 | 121.01485 | 89 ft | 1 kts | 63° |
| 2026-04-22 22:17 | 14.50844 | 121.01482 | 89 ft | 0 kts | 62° |
| 2026-04-22 22:19 | 14.50849 | 121.01492 | 89 ft | 4 kts | 62° |
| 2026-04-22 22:19 | 14.50876 | 121.01540 | 89 ft | 9 kts | 56° |
| 2026-04-22 22:19 | 14.50912 | 121.01608 | 89 ft | 11 kts | 78° |
| 2026-04-22 22:20 | 14.50862 | 121.01655 | 89 ft | 12 kts | 210° |
| 2026-04-22 22:20 | 14.50812 | 121.01578 | 89 ft | 13 kts | 242° |
| 2026-04-22 22:20 | 14.50761 | 121.01487 | 89 ft | 15 kts | 242° |
| 2026-04-22 22:20 | 14.50703 | 121.01382 | 89 ft | 17 kts | 242° |
| 2026-04-22 22:21 | 14.50640 | 121.01263 | 89 ft | 19 kts | 241° |
| 2026-04-22 22:21 | 14.50570 | 121.01137 | 89 ft | 21 kts | 239° |
| 2026-04-22 22:21 | 14.50492 | 121.00999 | 89 ft | 23 kts | 240° |
| 2026-04-22 22:21 | 14.50408 | 121.00850 | 89 ft | 24 kts | 239° |
| 2026-04-22 22:22 | 14.50322 | 121.00694 | 89 ft | 25 kts | 240° |
| 2026-04-22 22:22 | 14.50232 | 121.00528 | 89 ft | 27 kts | 241° |
| 2026-04-22 22:22 | 14.50154 | 121.00387 | 89 ft | 20 kts | 238° |
| 2026-04-22 22:22 | 14.50081 | 121.00259 | 89 ft | 21 kts | 241° |
| 2026-04-22 22:23 | 14.50005 | 121.00119 | 89 ft | 23 kts | 240° |
| 2026-04-22 22:23 | 14.49939 | 121.00001 | 89 ft | 10 kts | 240° |
| 2026-04-22 22:23 | 14.49890 | 120.99968 | 89 ft | 0 kts | 170° |
| 2026-04-22 22:23 | 14.49889 | 120.99968 | 89 ft | 0 kts | 170° |
| 2026-04-22 22:24 | 14.49880 | 120.99970 | 89 ft | 2 kts | 168° |
| 2026-04-22 22:24 | 14.49850 | 120.99981 | 89 ft | 6 kts | 152° |
| 2026-04-22 22:24 | 14.49808 | 121.00006 | 89 ft | 4 kts | 149° |
| 2026-04-22 22:24 | 14.49800 | 121.00040 | 89 ft | 6 kts | 68° |
| 2026-04-22 22:25 | 14.49806 | 121.00051 | 89 ft | 2 kts | 60° |
| 2026-04-22 22:25 | 14.49870 | 121.00168 | 89 ft | 50 kts | 60° |
| 2026-04-22 22:25 | 14.50174 | 121.00715 | 89 ft | 122 kts | 60° |
| 2026-04-22 22:25 | 14.50684 | 121.01627 | 181 ft | 165 kts | 60° |
| 2026-04-22 22:26 | 14.51220 | 121.02647 | 875 ft | 162 kts | 60° |
| 2026-04-22 22:26 | 14.51799 | 121.03655 | 1558 ft | 170 kts | 60° |
| 2026-04-22 22:26 | 14.52390 | 121.04705 | 2237 ft | 170 kts | 60° |
| 2026-04-22 22:26 | 14.52976 | 121.05761 | 2752 ft | 173 kts | 60° |
| 2026-04-22 22:27 | 14.53570 | 121.06832 | 3303 ft | 175 kts | 60° |
| 2026-04-22 22:27 | 14.54201 | 121.07970 | 3629 ft | 191 kts | 60° |
| 2026-04-22 22:27 | 14.54894 | 121.09219 | 3977 ft | 208 kts | 60° |
| 2026-04-22 22:27 | 14.55640 | 121.10567 | 4369 ft | 224 kts | 62° |
| 2026-04-22 22:28 | 14.56155 | 121.12120 | 4735 ft | 240 kts | 82° |
| 2026-04-22 22:28 | 14.56061 | 121.13908 | 5084 ft | 259 kts | 104° |
| 2026-04-22 22:28 | 14.55222 | 121.15575 | 5584 ft | 270 kts | 129° |
| 2026-04-22 22:28 | 14.53896 | 121.16966 | 6265 ft | 273 kts | 135° |
| 2026-04-22 22:29 | 14.52523 | 121.18327 | 6927 ft | 277 kts | 134° |
| 2026-04-22 22:29 | 14.51158 | 121.19716 | 7578 ft | 279 kts | 133° |
| 2026-04-22 22:29 | 14.49774 | 121.21146 | 8236 ft | 282 kts | 133° |
| 2026-04-22 22:29 | 14.48369 | 121.22551 | 8848 ft | 286 kts | 140° |
| 2026-04-22 22:30 | 14.46574 | 121.23470 | 9427 ft | 294 kts | 164° |
| 2026-04-22 22:30 | 14.44521 | 121.23513 | 9999 ft | 302 kts | 191° |
| 2026-04-22 22:30 | 14.42563 | 121.22608 | 10377 ft | 318 kts | 217° |
| 2026-04-22 22:30 | 14.40937 | 121.20991 | 10621 ft | 335 kts | 226° |
| 2026-04-22 22:31 | 14.39326 | 121.19152 | 10913 ft | 351 kts | 227° |
| 2026-04-22 22:31 | 14.37618 | 121.17297 | 11187 ft | 366 kts | 221° |
| 2026-04-22 22:31 | 14.35635 | 121.15576 | 11459 ft | 380 kts | 219° |
| 2026-04-22 22:31 | 14.33532 | 121.13813 | 11769 ft | 392 kts | 219° |
| 2026-04-22 22:32 | 14.31384 | 121.12015 | 12270 ft | 399 kts | 219° |
| 2026-04-22 22:32 | 14.29231 | 121.10213 | 12897 ft | 402 kts | 219° |
| 2026-04-22 22:32 | 14.27057 | 121.08394 | 13565 ft | 405 kts | 219° |
| 2026-04-22 22:32 | 14.24858 | 121.06554 | 14274 ft | 407 kts | 219° |
| 2026-04-22 22:33 | 14.22658 | 121.04714 | 15021 ft | 410 kts | 219° |
| 2026-04-22 22:33 | 14.20439 | 121.02859 | 15796 ft | 412 kts | 219° |
| 2026-04-22 22:33 | 14.18228 | 121.01010 | 16545 ft | 414 kts | 219° |
| 2026-04-22 22:33 | 14.15972 | 120.99126 | 17280 ft | 417 kts | 219° |
| 2026-04-22 22:34 | 14.13722 | 120.97247 | 17965 ft | 421 kts | 219° |
| 2026-04-22 22:34 | 14.11421 | 120.95325 | 18605 ft | 426 kts | 219° |
| 2026-04-22 22:34 | 14.09008 | 120.93582 | 19254 ft | 430 kts | 211° |
| 2026-04-22 22:34 | 14.06290 | 120.92237 | 19865 ft | 435 kts | 201° |
| 2026-04-22 22:35 | 14.03360 | 120.91370 | 20465 ft | 441 kts | 192° |
| 2026-04-22 22:35 | 14.00308 | 120.91022 | 21056 ft | 446 kts | 182° |
| 2026-04-22 22:35 | 13.97191 | 120.91221 | 21651 ft | 452 kts | 172° |
| 2026-04-22 22:35 | 13.94063 | 120.91913 | 22223 ft | 457 kts | 167° |
| 2026-04-22 22:36 | 13.91002 | 120.92711 | 22822 ft | 461 kts | 167° |
| 2026-04-22 22:36 | 13.87857 | 120.93533 | 23467 ft | 464 kts | 167° |
| 2026-04-22 22:36 | 13.84732 | 120.94347 | 24117 ft | 467 kts | 167° |
| 2026-04-22 22:36 | 13.81568 | 120.95167 | 24771 ft | 470 kts | 167° |
| 2026-04-22 22:37 | 13.78351 | 120.95998 | 25382 ft | 473 kts | 167° |
| 2026-04-22 22:37 | 13.75176 | 120.96815 | 25958 ft | 477 kts | 167° |
| 2026-04-22 22:37 | 13.71916 | 120.97653 | 26534 ft | 481 kts | 167° |
| 2026-04-22 22:37 | 13.68677 | 120.98486 | 27091 ft | 484 kts | 167° |
| 2026-04-22 22:38 | 13.65381 | 120.99331 | 27647 ft | 488 kts | 167° |
| 2026-04-22 22:38 | 13.62068 | 121.00180 | 28180 ft | 492 kts | 167° |
| 2026-04-22 22:38 | 13.58709 | 121.01041 | 28713 ft | 495 kts | 167° |
| 2026-04-22 22:38 | 13.55372 | 121.01895 | 29215 ft | 499 kts | 166° |
| 2026-04-22 22:39 | 13.51967 | 121.02734 | 29818 ft | 499 kts | 169° |
| 2026-04-22 22:39 | 13.48550 | 121.03152 | 30505 ft | 496 kts | 178° |
| 2026-04-22 22:39 | 13.45084 | 121.03233 | 31226 ft | 494 kts | 180° |
| 2026-04-22 22:39 | 13.41667 | 121.03269 | 31898 ft | 492 kts | 180° |
| 2026-04-22 22:40 | 13.38209 | 121.03302 | 32526 ft | 491 kts | 180° |
| 2026-04-22 22:40 | 13.34815 | 121.03335 | 33163 ft | 490 kts | 180° |
| 2026-04-22 22:40 | 13.31411 | 121.03368 | 33894 ft | 488 kts | 180° |
| 2026-04-22 22:40 | 13.28005 | 121.03402 | 34725 ft | 484 kts | 181° |
| 2026-04-22 22:41 | 13.24663 | 121.03435 | 35565 ft | 479 kts | 181° |
| 2026-04-22 22:41 | 13.21370 | 121.03467 | 36251 ft | 476 kts | 181° |
| 2026-04-22 22:41 | 13.18051 | 121.03500 | 36766 ft | 476 kts | 181° |
| 2026-04-22 22:41 | 13.14702 | 121.03532 | 37110 ft | 478 kts | 181° |
| 2026-04-22 22:42 | 13.11383 | 121.03565 | 37103 ft | 479 kts | 181° |
| 2026-04-22 22:42 | 13.04765 | 121.04037 | 37073 ft | 478 kts | 170° |
| 2026-04-22 22:43 | 12.98440 | 121.06390 | 37061 ft | 484 kts | 156° |
| 2026-04-22 22:43 | 12.92375 | 121.09367 | 37033 ft | 484 kts | 156° |
| 2026-04-22 22:44 | 12.86274 | 121.12367 | 37007 ft | 483 kts | 156° |
| 2026-04-22 22:44 | 12.80205 | 121.15350 | 36999 ft | 484 kts | 156° |
| 2026-04-22 22:45 | 12.74138 | 121.18331 | 37000 ft | 483 kts | 156° |
| 2026-04-22 22:45 | 12.68080 | 121.21306 | 36986 ft | 483 kts | 156° |
| 2026-04-22 22:46 | 12.62007 | 121.24286 | 36982 ft | 484 kts | 156° |
| 2026-04-22 22:46 | 12.55919 | 121.27272 | 36978 ft | 484 kts | 156° |
| 2026-04-22 22:47 | 12.49838 | 121.30254 | 36957 ft | 484 kts | 156° |
| 2026-04-22 22:47 | 12.43788 | 121.33218 | 36948 ft | 483 kts | 156° |
| 2026-04-22 22:48 | 12.37732 | 121.36183 | 36937 ft | 483 kts | 156° |
| 2026-04-22 22:48 | 12.31645 | 121.39163 | 36927 ft | 483 kts | 156° |
| 2026-04-22 22:49 | 12.25581 | 121.42130 | 36916 ft | 483 kts | 156° |
| 2026-04-22 22:49 | 12.19531 | 121.45087 | 36910 ft | 483 kts | 156° |
| 2026-04-22 22:50 | 12.13456 | 121.48057 | 36908 ft | 483 kts | 156° |
| 2026-04-22 22:50 | 12.07379 | 121.51025 | 36903 ft | 483 kts | 156° |
| 2026-04-22 22:51 | 12.01319 | 121.53984 | 36903 ft | 482 kts | 156° |
| 2026-04-22 22:51 | 11.95275 | 121.56934 | 36900 ft | 482 kts | 156° |
| 2026-04-22 22:52 | 11.89203 | 121.59895 | 36902 ft | 482 kts | 156° |
| 2026-04-22 22:52 | 11.83154 | 121.62844 | 36904 ft | 482 kts | 156° |
| 2026-04-22 22:53 | 11.77108 | 121.65790 | 36900 ft | 482 kts | 156° |
| 2026-04-22 22:53 | 11.71050 | 121.68741 | 36900 ft | 481 kts | 156° |
| 2026-04-22 22:54 | 11.65201 | 121.72077 | 36900 ft | 485 kts | 144° |
| 2026-04-22 22:54 | 11.60138 | 121.76681 | 36906 ft | 488 kts | 139° |
| 2026-04-22 22:55 | 11.55188 | 121.81394 | 36906 ft | 486 kts | 139° |
| 2026-04-22 22:55 | 11.47756 | 121.88459 | 36907 ft | 486 kts | 139° |
| 2026-04-22 22:56 | 11.42841 | 121.93125 | 36908 ft | 486 kts | 139° |
| 2026-04-22 22:56 | 11.37885 | 121.97828 | 36909 ft | 486 kts | 139° |
| 2026-04-22 22:57 | 11.32937 | 122.02519 | 36913 ft | 486 kts | 139° |
| 2026-04-22 22:57 | 11.27992 | 122.07206 | 36928 ft | 485 kts | 139° |
| 2026-04-22 22:58 | 11.23062 | 122.11875 | 36944 ft | 484 kts | 139° |
| 2026-04-22 22:58 | 11.18126 | 122.16548 | 36962 ft | 485 kts | 139° |
| 2026-04-22 22:59 | 11.13193 | 122.21216 | 36983 ft | 484 kts | 138° |
| 2026-04-22 22:59 | 11.08233 | 122.25906 | 37006 ft | 485 kts | 139° |
| 2026-04-22 23:00 | 11.03292 | 122.30576 | 36999 ft | 486 kts | 139° |
| 2026-04-22 23:00 | 10.98333 | 122.35257 | 36984 ft | 485 kts | 139° |
| 2026-04-22 23:01 | 10.93398 | 122.39913 | 36959 ft | 485 kts | 139° |
| 2026-04-22 23:01 | 10.88435 | 122.44593 | 36944 ft | 485 kts | 139° |
| 2026-04-22 23:02 | 10.83219 | 122.49075 | 36922 ft | 496 kts | 148° |
| 2026-04-22 23:02 | 10.77132 | 122.52261 | 36918 ft | 492 kts | 156° |
| 2026-04-22 23:03 | 10.70922 | 122.55193 | 36919 ft | 491 kts | 156° |
| 2026-04-22 23:03 | 10.64693 | 122.58134 | 36918 ft | 491 kts | 156° |
| 2026-04-22 23:04 | 10.58487 | 122.61066 | 36912 ft | 491 kts | 156° |
| 2026-04-22 23:04 | 10.52282 | 122.63998 | 36911 ft | 490 kts | 156° |
| 2026-04-22 23:05 | 10.46089 | 122.66923 | 36907 ft | 490 kts | 156° |
| 2026-04-22 23:05 | 10.39933 | 122.69829 | 36905 ft | 490 kts | 156° |
| 2026-04-22 23:06 | 10.33714 | 122.72764 | 36911 ft | 491 kts | 156° |
| 2026-04-22 23:06 | 10.27514 | 122.75688 | 36916 ft | 490 kts | 156° |
| 2026-04-22 23:07 | 10.21311 | 122.78612 | 36916 ft | 490 kts | 156° |
| 2026-04-22 23:07 | 10.15125 | 122.81528 | 36928 ft | 490 kts | 156° |
| 2026-04-22 23:08 | 10.08948 | 122.84438 | 36945 ft | 490 kts | 156° |
| 2026-04-22 23:08 | 10.02761 | 122.87353 | 36963 ft | 489 kts | 156° |
| 2026-04-22 23:09 | 9.96568 | 122.90268 | 36979 ft | 488 kts | 156° |
| 2026-04-22 23:09 | 9.90389 | 122.93175 | 36984 ft | 488 kts | 156° |
| 2026-04-22 23:10 | 9.84236 | 122.96069 | 37000 ft | 488 kts | 156° |
| 2026-04-22 23:10 | 9.78078 | 122.98965 | 37005 ft | 488 kts | 156° |
| 2026-04-22 23:11 | 9.71893 | 123.01872 | 37005 ft | 489 kts | 156° |
| 2026-04-22 23:11 | 9.65707 | 123.04780 | 36989 ft | 488 kts | 156° |
| 2026-04-22 23:12 | 9.59534 | 123.07679 | 36980 ft | 487 kts | 156° |
| 2026-04-22 23:12 | 9.53404 | 123.10558 | 36962 ft | 486 kts | 156° |
| 2026-04-22 23:13 | 9.47257 | 123.13442 | 36951 ft | 485 kts | 156° |
| 2026-04-22 23:13 | 9.41123 | 123.16320 | 36941 ft | 486 kts | 155° |
| 2026-04-22 23:14 | 9.34974 | 123.19204 | 36937 ft | 487 kts | 155° |
| 2026-04-22 23:14 | 9.28814 | 123.22092 | 36934 ft | 488 kts | 155° |
| 2026-04-22 23:15 | 9.22636 | 123.24986 | 36937 ft | 488 kts | 155° |
| 2026-04-22 23:15 | 9.16478 | 123.27871 | 36931 ft | 487 kts | 155° |
| 2026-04-22 23:16 | 9.10298 | 123.30765 | 36921 ft | 486 kts | 155° |
| 2026-04-22 23:16 | 9.04173 | 123.33633 | 36915 ft | 487 kts | 155° |
| 2026-04-22 23:17 | 8.97992 | 123.36526 | 36911 ft | 487 kts | 155° |
| 2026-04-22 23:17 | 8.91818 | 123.39415 | 36910 ft | 487 kts | 155° |
| 2026-04-22 23:18 | 8.85667 | 123.42292 | 36905 ft | 489 kts | 155° |
| 2026-04-22 23:18 | 8.79483 | 123.45184 | 36917 ft | 489 kts | 155° |
| 2026-04-22 23:19 | 8.73286 | 123.48080 | 36911 ft | 489 kts | 155° |
| 2026-04-22 23:19 | 8.67099 | 123.50970 | 36920 ft | 490 kts | 155° |
| 2026-04-22 23:20 | 8.60932 | 123.53851 | 36920 ft | 487 kts | 155° |
| 2026-04-22 23:20 | 8.54851 | 123.56690 | 36924 ft | 475 kts | 155° |
| 2026-04-22 23:21 | 8.48844 | 123.59494 | 36933 ft | 477 kts | 155° |
| 2026-04-22 23:21 | 8.42812 | 123.62309 | 36939 ft | 475 kts | 155° |
| 2026-04-22 23:22 | 8.36810 | 123.65107 | 36954 ft | 475 kts | 155° |
| 2026-04-22 23:22 | 8.30815 | 123.67902 | 36970 ft | 475 kts | 155° |
| 2026-04-22 23:23 | 8.24786 | 123.70713 | 36981 ft | 475 kts | 155° |
| 2026-04-22 23:23 | 8.18814 | 123.73495 | 36990 ft | 474 kts | 154° |
| 2026-04-22 23:24 | 8.12794 | 123.76299 | 36974 ft | 475 kts | 155° |
| 2026-04-22 23:24 | 8.06766 | 123.79106 | 36964 ft | 474 kts | 155° |
| 2026-04-22 23:25 | 8.00803 | 123.81881 | 36967 ft | 473 kts | 155° |
| 2026-04-22 23:25 | 7.94801 | 123.84674 | 36970 ft | 474 kts | 155° |
| 2026-04-22 23:26 | 7.88779 | 123.87476 | 36975 ft | 474 kts | 155° |
| 2026-04-22 23:26 | 7.82787 | 123.90262 | 36940 ft | 472 kts | 155° |
| 2026-04-22 23:27 | 7.79811 | 123.91645 | 36249 ft | 469 kts | 155° |
| 2026-04-22 23:27 | 7.76848 | 123.93022 | 35144 ft | 473 kts | 155° |
| 2026-04-22 23:27 | 7.73848 | 123.94417 | 34229 ft | 474 kts | 154° |
| 2026-04-22 23:27 | 7.70873 | 123.95799 | 33364 ft | 473 kts | 154° |
| 2026-04-22 23:28 | 7.67895 | 123.97183 | 32484 ft | 474 kts | 154° |
| 2026-04-22 23:28 | 7.64882 | 123.98583 | 31604 ft | 475 kts | 154° |
| 2026-04-22 23:28 | 7.61900 | 123.99967 | 30715 ft | 476 kts | 154° |
| 2026-04-22 23:28 | 7.58883 | 124.01369 | 30160 ft | 470 kts | 154° |
| 2026-04-22 23:29 | 7.55932 | 124.02738 | 29652 ft | 463 kts | 154° |
| 2026-04-22 23:29 | 7.53020 | 124.04090 | 29091 ft | 458 kts | 154° |
| 2026-04-22 23:29 | 7.50098 | 124.05447 | 28509 ft | 466 kts | 154° |
| 2026-04-22 23:29 | 7.47132 | 124.06824 | 27935 ft | 469 kts | 154° |
| 2026-04-22 23:30 | 7.44175 | 124.08195 | 27344 ft | 466 kts | 154° |
| 2026-04-22 23:30 | 7.41257 | 124.09549 | 26753 ft | 462 kts | 154° |
| 2026-04-22 23:30 | 7.38340 | 124.10902 | 26158 ft | 458 kts | 153° |
| 2026-04-22 23:30 | 7.35447 | 124.12244 | 25552 ft | 455 kts | 153° |
| 2026-04-22 23:31 | 7.32602 | 124.13563 | 24953 ft | 451 kts | 153° |
| 2026-04-22 23:31 | 7.29749 | 124.14886 | 24348 ft | 448 kts | 153° |
| 2026-04-22 23:31 | 7.26917 | 124.16198 | 23732 ft | 444 kts | 153° |
| 2026-04-22 23:31 | 7.24146 | 124.17483 | 23130 ft | 441 kts | 152° |
| 2026-04-22 23:32 | 7.21353 | 124.18778 | 22523 ft | 438 kts | 152° |
| 2026-04-22 23:32 | 7.18621 | 124.20047 | 21934 ft | 434 kts | 151° |
| 2026-04-22 23:32 | 7.16034 | 124.21570 | 21343 ft | 427 kts | 141° |
| 2026-04-22 23:32 | 7.13684 | 124.23398 | 20744 ft | 423 kts | 139° |
| 2026-04-22 23:33 | 7.11390 | 124.25254 | 20151 ft | 420 kts | 139° |
| 2026-04-22 23:33 | 7.09130 | 124.27087 | 19541 ft | 418 kts | 139° |
| 2026-04-22 23:33 | 7.06876 | 124.28915 | 18931 ft | 415 kts | 139° |
| 2026-04-22 23:33 | 7.04650 | 124.30718 | 18339 ft | 412 kts | 139° |
| 2026-04-22 23:34 | 7.02414 | 124.32530 | 17739 ft | 409 kts | 139° |
| 2026-04-22 23:34 | 7.00206 | 124.34320 | 17126 ft | 407 kts | 139° |
| 2026-04-22 23:34 | 6.98006 | 124.36101 | 16525 ft | 404 kts | 139° |
| 2026-04-22 23:34 | 6.95827 | 124.37866 | 15920 ft | 401 kts | 139° |
| 2026-04-22 23:35 | 6.93655 | 124.39625 | 15308 ft | 399 kts | 140° |
| 2026-04-22 23:35 | 6.91516 | 124.41358 | 14710 ft | 396 kts | 140° |
| 2026-04-22 23:35 | 6.89361 | 124.43102 | 14103 ft | 393 kts | 140° |
| 2026-04-22 23:35 | 6.87245 | 124.44815 | 13497 ft | 390 kts | 140° |
| 2026-04-22 23:36 | 6.85137 | 124.46522 | 12900 ft | 387 kts | 140° |
| 2026-04-22 23:36 | 6.83053 | 124.48209 | 12305 ft | 384 kts | 140° |
| 2026-04-22 23:36 | 6.80980 | 124.49885 | 11708 ft | 381 kts | 140° |
| 2026-04-22 23:36 | 6.78925 | 124.51548 | 11120 ft | 378 kts | 140° |
| 2026-04-22 23:37 | 6.76886 | 124.53198 | 10719 ft | 369 kts | 140° |
| 2026-04-22 23:37 | 6.74912 | 124.54793 | 10655 ft | 351 kts | 140° |
| 2026-04-22 23:37 | 6.73051 | 124.56298 | 10575 ft | 336 kts | 140° |
| 2026-04-22 23:37 | 6.71262 | 124.57745 | 10457 ft | 324 kts | 140° |
| 2026-04-22 23:38 | 6.69521 | 124.59153 | 10324 ft | 313 kts | 140° |
| 2026-04-22 23:38 | 6.67858 | 124.60498 | 10187 ft | 303 kts | 140° |
| 2026-04-22 23:38 | 6.66235 | 124.61803 | 9978 ft | 297 kts | 141° |
| 2026-04-22 23:38 | 6.64591 | 124.63049 | 9716 ft | 293 kts | 142° |
| 2026-04-22 23:39 | 6.62957 | 124.64276 | 9480 ft | 289 kts | 141° |
| 2026-04-22 23:39 | 6.61371 | 124.65474 | 9253 ft | 283 kts | 141° |
| 2026-04-22 23:39 | 6.59815 | 124.66652 | 9045 ft | 278 kts | 141° |
| 2026-04-22 23:39 | 6.58261 | 124.67831 | 8824 ft | 275 kts | 141° |
| 2026-04-22 23:40 | 6.56750 | 124.68977 | 8612 ft | 275 kts | 141° |
| 2026-04-22 23:40 | 6.55219 | 124.70139 | 8395 ft | 274 kts | 141° |
| 2026-04-22 23:40 | 6.53691 | 124.71298 | 8174 ft | 273 kts | 141° |
| 2026-04-22 23:40 | 6.52172 | 124.72450 | 7955 ft | 272 kts | 141° |
| 2026-04-22 23:41 | 6.50651 | 124.73604 | 7743 ft | 272 kts | 141° |
| 2026-04-22 23:41 | 6.49132 | 124.74755 | 7530 ft | 271 kts | 141° |
| 2026-04-22 23:41 | 6.47633 | 124.75892 | 7330 ft | 270 kts | 141° |
| 2026-04-22 23:41 | 6.46134 | 124.77029 | 7123 ft | 269 kts | 141° |
| 2026-04-22 23:42 | 6.44645 | 124.78158 | 6914 ft | 268 kts | 141° |
| 2026-04-22 23:42 | 6.43163 | 124.79281 | 6707 ft | 266 kts | 141° |
| 2026-04-22 23:42 | 6.41684 | 124.80404 | 6498 ft | 266 kts | 141° |
| 2026-04-22 23:42 | 6.40202 | 124.81531 | 6286 ft | 265 kts | 141° |
| 2026-04-22 23:43 | 6.38726 | 124.82657 | 6072 ft | 265 kts | 141° |
| 2026-04-22 23:43 | 6.37254 | 124.83781 | 5856 ft | 264 kts | 141° |
| 2026-04-22 23:43 | 6.35789 | 124.84903 | 5639 ft | 264 kts | 140° |
| 2026-04-22 23:43 | 6.34567 | 124.86209 | 5505 ft | 252 kts | 116° |
| 2026-04-22 23:44 | 6.33870 | 124.87767 | 5497 ft | 244 kts | 114° |
| 2026-04-22 23:44 | 6.33084 | 124.89373 | 5504 ft | 258 kts | 115° |
| 2026-04-22 23:44 | 6.32271 | 124.91005 | 5504 ft | 260 kts | 115° |
| 2026-04-22 23:44 | 6.31461 | 124.92626 | 5503 ft | 259 kts | 115° |
| 2026-04-22 23:45 | 6.30593 | 124.94216 | 5497 ft | 261 kts | 123° |
| 2026-04-22 23:45 | 6.29455 | 124.95641 | 5495 ft | 261 kts | 128° |
| 2026-04-22 23:45 | 6.28280 | 124.97040 | 5492 ft | 262 kts | 128° |
| 2026-04-22 23:45 | 6.27100 | 124.98441 | 5488 ft | 262 kts | 128° |
| 2026-04-22 23:46 | 6.25931 | 124.99831 | 5482 ft | 262 kts | 128° |
| 2026-04-22 23:46 | 6.24759 | 125.01225 | 5477 ft | 261 kts | 128° |
| 2026-04-22 23:46 | 6.23571 | 125.02639 | 5476 ft | 262 kts | 128° |
| 2026-04-22 23:46 | 6.22399 | 125.04033 | 5474 ft | 262 kts | 128° |
| 2026-04-22 23:47 | 6.21229 | 125.05425 | 5473 ft | 262 kts | 128° |
| 2026-04-22 23:47 | 6.20047 | 125.06832 | 5472 ft | 262 kts | 128° |
| 2026-04-22 23:47 | 6.18869 | 125.08234 | 5471 ft | 262 kts | 128° |
| 2026-04-22 23:47 | 6.17690 | 125.09636 | 5468 ft | 261 kts | 128° |
| 2026-04-22 23:48 | 6.16514 | 125.11034 | 5463 ft | 262 kts | 128° |
| 2026-04-22 23:48 | 6.15339 | 125.12432 | 5461 ft | 262 kts | 128° |
| 2026-04-22 23:48 | 6.14164 | 125.13829 | 5459 ft | 261 kts | 128° |
| 2026-04-22 23:48 | 6.12997 | 125.15217 | 5458 ft | 261 kts | 128° |
| 2026-04-22 23:49 | 6.11819 | 125.16618 | 5454 ft | 261 kts | 128° |
| 2026-04-22 23:49 | 6.10495 | 125.17863 | 5436 ft | 264 kts | 148° |
| 2026-04-22 23:49 | 6.08748 | 125.18475 | 5430 ft | 267 kts | 167° |
| 2026-04-22 23:49 | 6.06902 | 125.18759 | 5431 ft | 268 kts | 171° |
| 2026-04-22 23:50 | 6.05040 | 125.18986 | 5430 ft | 268 kts | 171° |
| 2026-04-22 23:50 | 6.03166 | 125.19211 | 5406 ft | 268 kts | 171° |
| 2026-04-22 23:50 | 6.01302 | 125.19437 | 5230 ft | 270 kts | 171° |
| 2026-04-22 23:50 | 5.99441 | 125.19663 | 4958 ft | 270 kts | 171° |
| 2026-04-22 23:51 | 5.97557 | 125.19894 | 4656 ft | 271 kts | 171° |
| 2026-04-22 23:51 | 5.95680 | 125.20122 | 4359 ft | 271 kts | 171° |
| 2026-04-22 23:51 | 5.93816 | 125.20350 | 4282 ft | 261 kts | 171° |
| 2026-04-22 23:51 | 5.92060 | 125.20559 | 4274 ft | 249 kts | 173° |
| 2026-04-22 23:52 | 5.90364 | 125.20351 | 4100 ft | 246 kts | 201° |
| 2026-04-22 23:52 | 5.88945 | 125.19376 | 3727 ft | 245 kts | 232° |
| 2026-04-22 23:52 | 5.88187 | 125.17915 | 3506 ft | 234 kts | 256° |
| 2026-04-22 23:52 | 5.87837 | 125.16339 | 3348 ft | 229 kts | 262° |
| 2026-04-22 23:53 | 5.87600 | 125.14734 | 3005 ft | 234 kts | 267° |
| 2026-04-22 23:53 | 5.87884 | 125.13179 | 2790 ft | 222 kts | 300° |
| 2026-04-22 23:53 | 5.88885 | 125.12108 | 2681 ft | 205 kts | 333° |
| 2026-04-22 23:53 | 5.90165 | 125.11643 | 2626 ft | 190 kts | 348° |
| 2026-04-22 23:54 | 5.91428 | 125.11393 | 2578 ft | 178 kts | 353° |
| 2026-04-22 23:54 | 5.92635 | 125.11228 | 2535 ft | 173 kts | 355° |
| 2026-04-22 23:54 | 5.93831 | 125.11082 | 2488 ft | 171 kts | 355° |
| 2026-04-22 23:54 | 5.95022 | 125.10938 | 2439 ft | 171 kts | 355° |
| 2026-04-22 23:55 | 5.96200 | 125.10794 | 2330 ft | 167 kts | 355° |
| 2026-04-22 23:55 | 5.97363 | 125.10651 | 2065 ft | 170 kts | 355° |
| 2026-04-22 23:55 | 5.98549 | 125.10507 | 1790 ft | 172 kts | 355° |
| 2026-04-22 23:55 | 5.99754 | 125.10360 | 1525 ft | 173 kts | 355° |
| 2026-04-22 23:56 | 6.00913 | 125.10217 | 1285 ft | 159 kts | 355° |
| 2026-04-22 23:56 | 6.01938 | 125.10092 | 1063 ft | 141 kts | 355° |
| 2026-04-22 23:56 | 6.02909 | 125.09972 | 752 ft | 137 kts | 354° |
| 2026-04-22 23:56 | 6.03828 | 125.09858 | 620 ft | 132 kts | 356° |
| 2026-04-22 23:57 | 6.04712 | 125.09753 | 541 ft | 113 kts | 355° |
| 2026-04-22 23:57 | 6.05314 | 125.09681 | 541 ft | 65 kts | 354° |
| 2026-04-22 23:57 | 6.05628 | 125.09642 | 541 ft | 29 kts | 353° |
| 2026-04-22 23:57 | 6.05765 | 125.09625 | 541 ft | 14 kts | 355° |
| 2026-04-22 23:58 | 6.05818 | 125.09681 | 541 ft | 11 kts | 74° |
| 2026-04-22 23:58 | 6.05825 | 125.09721 | 541 ft | 1 kts | 83° |
| 2026-04-22 23:58 | 6.05828 | 125.09742 | 541 ft | 4 kts | 83° |
| 2026-04-22 23:58 | 6.05833 | 125.09789 | 541 ft | 8 kts | 83° |
| 2026-04-22 23:59 | 6.05842 | 125.09858 | 540 ft | 11 kts | 82° |
| 2026-04-22 23:59 | 6.05807 | 125.09883 | 540 ft | 8 kts | 181° |
| 2026-04-22 23:59 | 6.05744 | 125.09882 | 540 ft | 9 kts | 180° |
| 2026-04-22 23:59 | 6.05703 | 125.09888 | 540 ft | 1 kts | 126° |
| 2026-04-23 00:00 | 6.05717 | 125.09926 | 540 ft | 2 kts | 77° |
| 2026-04-23 00:00 | 6.05722 | 125.09949 | 540 ft | 3 kts | 80° |
| 2026-04-23 00:00 | 6.05724 | 125.09960 | 541 ft | 0 kts | 81° |
| 2026-04-23 00:01 | 6.05724 | 125.09961 | 541 ft | 0 kts | 81° |